Other Surface Observations
Issued by NWS Great Falls, MT

Home | Current Version | Previous Version | Text Only | Print | Product List | Glossary On
Versions: 1 2 3 4 5 6 7 8 9 10 11 12 13 14 15 16 17 18 19 20 21 22 23 24 25 26 27 28 29 30 31 32 33 34 35 36 37 38 39 40 41 42 43 44 45 46 47 48 49 50
000
SXUS55 KTFX 252344
OSOTFX
AREA AWOS OBSERVATIONS
NATIONAL WEATHER SERVICE GREAT FALLS MT
0544 PM MDT TUE APR 25 2017

METAR KPWD 252345Z AUTO 08008KT 10SM 04/M06 A2997 RMK PLENTYWOOD
METAR KPO1 252345Z AUTO 05011KT 10SM 05/M06 A2996 RMK POPLAR
METAR KS71 252345Z AUTO 10012G19KT 10SM 07/M02 A2986 RMK CHINOOK
METAR K79S 252345Z AUTO 4SM 07/06 A2982 RMK FORT BENTON
METAR K38S 252345Z AUTO 00000KT 10SM 12/M04 A2981 RMK DEER LODGE
METAR K3U3 252345Z AUTO 29007G16KT 10SM 10/M03 A2979 RMK ANACONDA
METAR K6S5 252345Z AUTO 05008KT 10SM 11/M02 A2981 RMK HAMILTON
METAR K88M 252345Z AUTO 15003KT 10SM 09/01 A2980 RMK EUREKA



USA.gov is the U.S. government's official web portal to all federal, state and local government web resources and services.